Time;durP1;ratioP1;P1;durP2;ratioP2;P2;SDS_P1;SDS_P2;PMS_P1;PMS_P2;Temp;Humidity;BMP_temperature;BMP_pressure;BME280_temperature;BME280_humidity;BME280_pressure;Samples;Min_cycle;Max_cycle;Signal;HPM_P1;HPM_P2
2023/09/15 00:02:08;;;;;;;19.67;13.38;;;;;;;-145.63;52.71;39303.91;5084393;28;20024;-66
2023/09/15 00:04:34;;;;;;;17.13;12.68;;;;;;;-145.63;52.58;39253.06;5065443;28;20044;-66
2023/09/15 00:07:00;;;;;;;21.77;14.25;;;;;;;-145.63;52.93;39270.66;5078163;28;20206;-65
2023/09/15 00:09:25;;;;;;;22.13;13.77;;;;;;;-145.63;52.70;39247.19;5084062;28;20024;-65
2023/09/15 00:11:54;;;;;;;22.95;15.38;;;;;;;-145.63;52.29;39276.53;5080037;28;20351;-66
2023/09/15 00:14:21;;;;;;;20.77;14.68;;;;;;;-145.63;52.96;39251.09;5064159;28;20035;-66
2023/09/15 00:16:47;;;;;;;20.02;14.52;;;;;;;-145.63;52.88;39270.66;5082425;28;20028;-66
2023/09/15 00:19:16;;;;;;;23.23;13.68;;;;;;;-145.63;52.64;39255.00;5074797;28;20052;-67
2023/09/15 00:21:43;;;;;;;21.02;13.52;;;;;;;-145.63;52.95;39282.41;5075050;28;20085;-68
2023/09/15 00:24:09;;;;;;;17.92;13.93;;;;;;;-145.63;52.74;39237.41;5077532;28;20032;-67
2023/09/15 00:26:35;;;;;;;19.15;12.88;;;;;;;-145.63;53.00;39284.34;5065808;28;20021;-66
2023/09/15 00:29:02;;;;;;;17.40;13.50;;;;;;;-145.63;53.44;39274.56;5066244;28;20356;-67
2023/09/15 00:31:28;;;;;;;19.25;13.55;;;;;;;-145.63;53.36;39278.47;5066309;28;20339;-65
2023/09/15 00:33:54;;;;;;;20.73;14.35;;;;;;;-145.63;53.41;39266.75;5076118;28;20501;-67
2023/09/15 00:36:20;;;;;;;20.65;15.10;;;;;;;-145.63;53.36;39247.19;5083567;28;20035;-66
2023/09/15 00:38:45;;;;;;;21.30;15.60;;;;;;;-145.63;53.65;39280.44;5080833;28;20047;-66
2023/09/15 00:41:13;;;;;;;23.95;16.17;;;;;;;-145.63;53.86;39262.84;5068597;28;20301;-65
2023/09/15 00:43:39;;;;;;;23.98;15.50;;;;;;;-145.63;54.10;39264.78;5083721;28;20032;-67
2023/09/15 00:46:06;;;;;;;19.90;14.80;;;;;;;-145.63;53.32;39270.66;5069374;28;20025;-66
2023/09/15 00:48:32;;;;;;;17.58;13.77;;;;;;;-145.63;53.21;39274.56;5072972;28;20284;-66
2023/09/15 00:50:58;;;;;;;19.33;13.73;;;;;;;-145.63;53.17;39301.94;5078809;28;20093;-66
2023/09/15 00:53:24;;;;;;;23.05;14.93;;;;;;;-145.63;53.55;39284.34;5063356;28;20029;-67
2023/09/15 00:55:51;;;;;;;20.75;14.45;;;;;;;-145.63;53.15;39276.53;5076659;28;20036;-66
2023/09/15 00:58:19;;;;;;;20.50;14.57;;;;;;;-145.63;53.29;39298.03;5081878;28;20035;-66
2023/09/15 01:00:45;;;;;;;22.45;14.52;;;;;;;-145.63;53.38;39241.31;5063462;28;20020;-66
2023/09/15 01:03:14;;;;;;;17.85;13.82;;;;;;;-145.63;53.08;39280.44;5065925;28;20221;-66
2023/09/15 01:05:42;;;;;;;20.02;14.85;;;;;;;-145.63;53.68;39292.19;5067224;28;20048;-66
2023/09/15 01:08:07;;;;;;;19.85;15.63;;;;;;;-145.63;53.73;39341.06;5071351;28;20021;-66
2023/09/15 01:10:33;;;;;;;22.50;15.43;;;;;;;-145.63;53.65;39288.25;5079714;28;20036;-67
2023/09/15 01:12:59;;;;;;;23.23;15.90;;;;;;;-145.63;53.54;39282.41;5069506;28;20021;-67
2023/09/15 01:15:36;;;;;;;25.65;16.75;;;;;;;-145.63;54.20;39286.31;5082978;28;20228;-66
2023/09/15 01:18:08;;;;;;;22.90;16.98;;;;;;;-145.63;53.42;39298.03;5075596;28;20028;-67
2023/09/15 01:20:55;;;;;;;25.40;18.52;;;;;;;-145.63;54.00;39270.66;5047083;28;20040;-67
2023/09/15 01:23:47;;;;;;;28.63;17.70;;;;;;;-145.63;54.19;39305.88;5072910;28;20209;-67
2023/09/15 01:26:40;;;;;;;20.60;18.27;;;;;;;-145.63;53.82;39317.59;5083026;28;20032;-66
2023/09/15 01:29:27;;;;;;;23.73;18.48;;;;;;;-145.63;54.07;39313.69;5075563;28;20033;-66
2023/09/15 01:31:54;;;;;;;23.58;17.95;;;;;;;-145.63;53.88;39294.13;5063208;28;20036;-66
2023/09/15 01:34:20;;;;;;;28.55;19.00;;;;;;;-145.63;53.65;39301.94;5064673;28;20021;-66
2023/09/15 01:36:45;;;;;;;24.40;18.52;;;;;;;-145.63;53.75;39266.75;5083111;28;20021;-66
2023/09/15 01:39:11;;;;;;;24.88;18.75;;;;;;;-145.63;53.69;39266.75;5083110;28;20029;-66
2023/09/15 01:41:37;;;;;;;25.30;18.45;;;;;;;-145.63;53.80;39258.94;5079288;28;20036;-67
2023/09/15 01:44:03;;;;;;;24.75;17.90;;;;;;;-145.63;53.42;39292.19;5083012;28;20028;-66
2023/09/15 01:46:28;;;;;;;25.08;18.95;;;;;;;-145.63;54.19;39307.81;5080270;28;20050;-69
2023/09/15 01:48:56;;;;;;;29.23;18.25;;;;;;;-145.63;54.37;39296.09;5063088;28;20036;-68
2023/09/15 01:51:23;;;;;;;24.17;18.23;;;;;;;-145.63;54.35;39288.25;5080855;28;20382;-66
2023/09/15 01:53:52;;;;;;;28.80;18.90;;;;;;;-145.63;54.50;39294.13;5069445;28;20025;-66
2023/09/15 01:56:20;;;;;;;22.02;16.17;;;;;;;-145.63;53.66;39303.91;5071689;28;20031;-66
2023/09/15 01:58:46;;;;;;;26.02;18.35;;;;;;;-145.63;54.03;39319.56;5078107;28;20294;-66
2023/09/15 02:01:12;;;;;;;27.08;16.60;;;;;;;-145.63;54.21;39249.16;5062892;28;20074;-66
2023/09/15 02:03:38;;;;;;;25.17;16.75;;;;;;;-145.63;53.80;39317.59;5082794;28;20090;-66
2023/09/15 02:06:04;;;;;;;21.27;16.05;;;;;;;-145.63;53.78;39301.94;5066963;28;20332;-66
2023/09/15 02:08:31;;;;;;;26.92;17.70;;;;;;;-145.63;53.89;39290.22;5055412;28;20029;-65
2023/09/15 02:10:57;;;;;;;20.92;14.73;;;;;;;-145.63;53.78;39296.09;5076596;28;20033;-66
2023/09/15 02:13:23;;;;;;;18.92;14.98;;;;;;;-145.63;53.86;39292.19;5063840;28;20028;-66
2023/09/15 02:15:53;;;;;;;19.30;14.90;;;;;;;-145.63;54.09;39325.41;5082704;28;20024;-66
2023/09/15 02:18:20;;;;;;;20.25;15.05;;;;;;;-145.63;54.20;39296.09;5072146;28;20032;-65
2023/09/15 02:20:53;;;;;;;22.38;15.75;;;;;;;-145.63;54.44;39317.59;5080336;28;20071;-66
2023/09/15 02:23:19;;;;;;;22.27;15.30;;;;;;;-145.63;54.10;39274.56;5073735;28;20017;-65
2023/09/15 02:25:45;;;;;;;22.55;15.55;;;;;;;-145.63;54.55;39305.88;5070168;28;20028;-65
2023/09/15 02:28:11;;;;;;;23.40;15.70;;;;;;;-145.63;54.03;39282.41;5086286;28;20032;-66
2023/09/15 02:30:37;;;;;;;19.52;15.20;;;;;;;-145.63;53.82;39333.25;5070472;28;20094;-66
2023/09/15 02:33:03;;;;;;;19.77;15.45;;;;;;;-145.63;53.89;39305.88;5085923;28;20025;-66
2023/09/15 02:35:29;;;;;;;20.05;16.10;;;;;;;-145.63;54.49;39276.53;5085996;28;20070;-67
2023/09/15 02:37:55;;;;;;;21.13;15.88;;;;;;;-145.63;54.15;39286.31;5086046;28;20031;-66
2023/09/15 02:40:24;;;;;;;20.40;14.27;;;;;;;-145.63;53.77;39268.72;5084897;28;20043;-66
2023/09/15 02:42:50;;;;;;;23.25;16.27;;;;;;;-145.63;53.97;39266.75;5084328;28;20313;-66
2023/09/15 02:45:16;;;;;;;24.67;15.50;;;;;;;-145.63;54.30;39319.56;5086076;28;20084;-66
2023/09/15 02:47:42;;;;;;;17.85;14.30;;;;;;;-145.63;54.25;39311.72;5073810;28;20051;-66
2023/09/15 02:50:08;;;;;;;31.75;16.02;;;;;;;-145.63;54.18;39288.25;5072990;28;20029;-66
2023/09/15 02:52:35;;;;;;;21.83;15.05;;;;;;;-145.63;54.30;39313.69;5082835;28;20107;-65
2023/09/15 02:55:01;;;;;;;20.20;14.90;;;;;;;-145.63;54.13;39301.94;5065906;28;20028;-66
2023/09/15 02:57:29;;;;;;;17.33;14.40;;;;;;;-145.63;53.83;39300.00;5066642;28;20032;-67
2023/09/15 02:59:55;;;;;;;18.35;14.70;;;;;;;-145.63;54.30;39321.50;5085745;28;20086;-66
2023/09/15 03:02:21;;;;;;;19.42;14.90;;;;;;;-145.63;54.42;39325.41;5078686;28;20025;-66
2023/09/15 03:04:47;;;;;;;19.10;14.77;;;;;;;-145.63;54.30;39307.81;5085442;28;20047;-66
2023/09/15 03:07:13;;;;;;;18.48;14.13;;;;;;;-145.63;54.35;39282.41;5085705;28;20056;-66
2023/09/15 03:09:39;;;;;;;23.17;14.95;;;;;;;-145.63;54.11;39268.72;5065561;28;20391;-67
2023/09/15 03:12:05;;;;;;;20.02;14.98;;;;;;;-145.63;54.42;39301.94;5080332;28;20032;-67
2023/09/15 03:14:31;;;;;;;20.33;14.50;;;;;;;-145.63;54.15;39311.72;5057147;28;20267;-67
2023/09/15 03:16:57;;;;;;;23.10;15.88;;;;;;;-145.63;53.78;39321.50;5068719;28;20052;-67
2023/09/15 03:19:23;;;;;;;25.23;15.75;;;;;;;-145.63;53.94;39311.72;5075690;28;20087;-66
2023/09/15 03:21:49;;;;;;;20.38;14.27;;;;;;;-145.63;54.46;39298.03;5065210;28;20033;-67
2023/09/15 03:24:15;;;;;;;21.55;15.40;;;;;;;-145.63;53.77;39305.88;5081121;28;20039;-68
2023/09/15 03:26:40;;;;;;;24.02;15.20;;;;;;;-145.63;54.53;39290.22;5073953;28;20051;-66
2023/09/15 03:29:06;;;;;;;17.48;14.20;;;;;;;-145.63;54.28;39286.31;5065239;28;20033;-67
2023/09/15 03:31:32;;;;;;;21.35;15.32;;;;;;;-145.63;54.50;39278.47;5066815;28;20032;-65
2023/09/15 03:33:58;;;;;;;22.05;14.65;;;;;;;-145.63;53.86;39258.94;5085054;28;20025;-67
2023/09/15 03:36:26;;;;;;;19.55;14.20;;;;;;;-145.63;54.03;39309.78;5067084;28;20033;-66
2023/09/15 03:38:52;;;;;;;16.55;14.07;;;;;;;-145.63;54.25;39260.88;5077911;28;20392;-67
2023/09/15 03:41:17;;;;;;;20.05;15.10;;;;;;;-145.63;54.09;39290.22;5084866;28;20028;-66
2023/09/15 03:43:43;;;;;;;20.33;14.40;;;;;;;-145.63;54.10;39286.31;5067160;28;20024;-67
2023/09/15 03:46:09;;;;;;;22.25;15.13;;;;;;;-145.63;54.59;39284.34;5076643;28;20016;-66
2023/09/15 03:48:34;;;;;;;19.98;15.05;;;;;;;-145.63;54.13;39282.41;5073050;28;20082;-66
2023/09/15 03:51:00;;;;;;;22.60;14.88;;;;;;;-145.63;54.50;39290.22;5070734;28;20056;-66
2023/09/15 03:53:26;;;;;;;21.80;14.75;;;;;;;-145.63;54.17;39284.34;5073435;28;20035;-67
2023/09/15 03:55:52;;;;;;;18.98;14.90;;;;;;;-145.63;54.17;39286.31;5080065;28;20313;-65
2023/09/15 03:58:17;;;;;;;20.52;14.60;;;;;;;-145.63;54.00;39305.88;5084427;28;20039;-68
2023/09/15 04:00:43;;;;;;;22.90;14.90;;;;;;;-145.63;53.77;39280.44;5084451;28;20029;-67
2023/09/15 04:03:09;;;;;;;20.15;15.38;;;;;;;-145.63;54.00;39266.75;5069268;28;20041;-66
2023/09/15 04:05:35;;;;;;;23.73;15.65;;;;;;;-145.63;54.32;39268.72;5074367;28;20037;-67
2023/09/15 04:08:01;;;;;;;22.10;14.95;;;;;;;-145.63;53.71;39075.09;5078754;28;20029;-67
2023/09/15 04:10:27;;;;;;;24.13;15.18;;;;;;;-145.63;53.79;39270.66;5064793;28;20025;-66
2023/09/15 04:12:52;;;;;;;22.60;15.13;;;;;;;-145.63;53.66;39262.84;5084580;28;20070;-66
2023/09/15 04:15:18;;;;;;;38.13;17.42;;;;;;;-145.63;53.32;39270.66;5067622;28;20029;-68
2023/09/15 04:17:44;;;;;;;27.20;16.98;;;;;;;-145.63;53.42;39290.22;5073478;28;20305;-67
2023/09/15 04:20:11;;;;;;;23.65;16.15;;;;;;;-145.63;53.09;39270.66;5075689;28;20253;-67
2023/09/15 04:22:38;;;;;;;23.85;16.23;;;;;;;-145.63;52.76;39329.34;5081929;28;20032;-65
2023/09/15 04:25:05;;;;;;;21.00;14.68;;;;;;;-145.63;52.67;39255.00;5067585;28;20048;-66
2023/09/15 04:27:34;;;;;;;20.30;14.40;;;;;;;-145.63;53.82;39270.66;5078316;28;20032;-66
2023/09/15 04:30:01;;;;;;;21.88;13.80;;;;;;;-145.63;53.65;39266.75;5077536;28;20028;-66
2023/09/15 04:32:27;;;;;;;23.05;14.52;;;;;;;-145.63;53.33;39251.09;5078922;28;20051;-66
2023/09/15 04:34:54;;;;;;;20.52;14.65;;;;;;;-145.63;53.59;39260.88;5075857;28;20034;-67
2023/09/15 04:37:20;;;;;;;24.10;15.68;;;;;;;-145.63;53.46;39229.59;5064125;28;20028;-67
2023/09/15 04:39:49;;;;;;;19.08;14.63;;;;;;;-145.63;53.23;39262.84;5083438;28;20511;-66
2023/09/15 04:42:15;;;;;;;20.08;14.52;;;;;;;-145.63;52.93;39223.72;5081444;28;20029;-67
2023/09/15 04:44:41;;;;;;;20.80;14.30;;;;;;;-145.63;52.96;39253.06;5072653;28;20102;-67
2023/09/15 04:47:07;;;;;;;20.98;14.80;;;;;;;-145.63;53.36;39276.53;5062796;28;20037;-67
2023/09/15 04:49:33;;;;;;;20.38;14.45;;;;;;;-145.63;52.85;39258.94;5066380;28;20021;-67
2023/09/15 04:51:59;;;;;;;28.90;15.45;;;;;;;-145.63;53.16;39241.31;5078656;28;20035;-67
2023/09/15 04:54:26;;;;;;;21.15;13.75;;;;;;;-145.63;52.87;39212.00;5064531;28;20449;-67
2023/09/15 04:56:52;;;;;;;23.27;14.55;;;;;;;-145.63;53.32;39241.31;5078179;28;20078;-67
2023/09/15 04:59:19;;;;;;;23.52;14.43;;;;;;;-145.63;52.61;39219.81;5083525;28;20231;-67
2023/09/15 05:01:48;;;;;;;21.88;15.48;;;;;;;-145.63;53.18;39215.91;5080297;28;20048;-67
2023/09/15 05:04:14;;;;;;;26.95;15.95;;;;;;;-145.63;51.60;39215.91;5062926;28;20040;-66
2023/09/15 05:06:42;;;;;;;23.05;16.23;;;;;;;-145.63;51.20;39219.81;5081634;28;20048;-67
2023/09/15 05:09:11;;;;;;;22.17;15.43;;;;;;;-145.63;51.17;39208.06;5051217;28;20167;-67
2023/09/15 05:11:37;;;;;;;22.73;15.10;;;;;;;-145.63;49.82;39192.44;5073065;28;20047;-66
2023/09/15 05:14:03;;;;;;;20.20;13.95;;;;;;;-145.63;50.48;39208.06;5077778;28;20481;-68
2023/09/15 05:16:29;;;;;;;17.55;12.30;;;;;;;-145.63;50.61;39204.16;5063564;28;20044;-68
2023/09/15 05:18:55;;;;;;;22.67;14.75;;;;;;;-145.63;51.07;39235.47;5071862;28;20029;-68
2023/09/15 05:21:22;;;;;;;24.70;15.68;;;;;;;-145.63;50.43;39239.38;5071690;28;20017;-67
2023/09/15 05:23:47;;;;;;;20.70;15.10;;;;;;;-145.63;50.23;39163.09;5072221;28;20036;-67
2023/09/15 05:26:13;;;;;;;22.33;12.88;;;;;;;-145.63;50.55;39196.34;5069607;28;20080;-67
2023/09/15 05:28:38;;;;;;;23.40;14.93;;;;;;;-145.63;50.72;39256.97;5082818;28;20055;-67
2023/09/15 05:31:04;;;;;;;20.17;14.25;;;;;;;-145.63;49.99;39192.44;5065705;28;20055;-67
2023/09/15 05:33:30;;;;;;;18.90;13.13;;;;;;;-145.63;50.33;39196.34;5069193;28;20035;-68
2023/09/15 05:35:56;;;;;;;22.08;15.90;;;;;;;-145.63;49.20;39186.56;5066339;28;20217;-68
2023/09/15 05:38:23;;;;;;;21.73;14.73;;;;;;;-145.63;49.46;39192.44;5081080;28;20041;-67
2023/09/15 05:40:49;;;;;;;23.95;15.68;;;;;;;-145.63;50.37;39204.16;5082861;28;20093;-66
2023/09/15 05:43:16;;;;;;;22.77;14.48;;;;;;;-145.63;50.26;39194.38;5083174;28;20020;-67
2023/09/15 05:45:42;;;;;;;24.90;15.93;;;;;;;-145.63;49.76;38588.16;5082723;28;20028;-67
2023/09/15 05:48:12;;;;;;;23.60;16.15;;;;;;;-145.63;49.35;39223.72;5068939;28;20313;-66
2023/09/15 05:50:39;;;;;;;26.45;17.67;;;;;;;-145.63;49.75;39172.88;5072307;28;20320;-66
2023/09/15 05:53:05;;;;;;;20.98;15.70;;;;;;;-145.63;49.19;39157.22;5082754;28;20033;-66
2023/09/15 05:55:31;;;;;;;25.30;19.05;;;;;;;-145.63;48.90;39151.38;5082677;28;20032;-67
2023/09/15 05:57:57;;;;;;;22.52;15.85;;;;;;;-145.63;49.41;39141.59;5083429;28;20364;-67
2023/09/15 06:00:23;;;;;;;25.92;16.83;;;;;;;-145.63;49.17;39157.22;5068528;28;20038;-67
2023/09/15 06:02:48;;;;;;;23.65;16.83;;;;;;;-145.63;48.41;39127.91;5057695;28;20041;-66
2023/09/15 06:05:16;;;;;;;24.05;16.67;;;;;;;-145.63;48.64;39098.56;5073100;28;20024;-67
2023/09/15 06:07:41;;;;;;;29.23;17.35;;;;;;;-145.63;49.39;39129.84;5066904;28;20048;-66
2023/09/15 06:10:07;;;;;;;29.73;17.05;;;;;;;-145.63;48.50;39153.31;5066540;28;20028;-66
2023/09/15 06:12:33;;;;;;;21.27;14.95;;;;;;;-145.63;48.76;39151.38;5083238;28;20086;-66
2023/09/15 06:14:58;;;;;;;23.17;16.83;;;;;;;-145.63;48.47;39168.97;5073813;28;20316;-67
2023/09/15 06:17:25;;;;;;;22.10;15.85;;;;;;;-145.63;48.09;39120.06;5051234;28;20013;-67
2023/09/15 06:19:51;;;;;;;26.67;16.50;;;;;;;-145.63;48.38;39112.25;5077776;28;20056;-67
2023/09/15 06:22:17;;;;;;;25.83;15.27;;;;;;;-145.63;48.16;39082.91;5086429;28;20284;-67
2023/09/15 06:24:43;;;;;;;27.00;16.25;;;;;;;-145.63;48.28;39094.66;5067819;28;20033;-67
2023/09/15 06:27:08;;;;;;;40.35;29.58;;;;;;;-145.63;47.80;39223.72;5079534;28;20059;-66
2023/09/15 06:29:34;;;;;;;29.83;19.02;;;;;;;-145.63;47.63;39092.69;5077053;28;20032;-67
2023/09/15 06:31:59;;;;;;;27.08;17.90;;;;;;;-145.63;47.72;39047.72;5070373;28;20035;-67
2023/09/15 06:34:25;;;;;;;27.77;17.17;;;;;;;-145.63;47.40;39008.59;5085688;28;20325;-68
2023/09/15 06:36:51;;;;;;;35.08;17.35;;;;;;;-145.63;46.81;39028.16;5086207;28;20031;-68
2023/09/15 06:39:16;;;;;;;32.30;18.65;;;;;;;-145.63;46.91;39016.44;5086213;28;20070;-67
2023/09/15 06:41:42;;;;;;;27.67;17.48;;;;;;;-145.63;46.10;38994.91;5081159;28;20070;-65
2023/09/15 06:44:10;;;;;;;28.80;16.23;;;;;;;-145.63;45.42;39045.75;5066402;28;20055;-67
2023/09/15 06:46:35;;;;;;;25.83;16.13;;;;;;;-145.63;46.02;38994.91;5065960;28;20044;-66
2023/09/15 06:49:01;;;;;;;22.75;15.32;;;;;;;-145.63;45.06;38951.88;5085921;28;20028;-66
2023/09/15 06:51:27;;;;;;;24.98;14.52;;;;;;;-145.63;43.87;38942.13;5076074;28;20305;-66
2023/09/15 06:53:53;;;;;;;26.85;15.25;;;;;;;-145.63;44.00;38934.28;5085092;28;20462;-66
2023/09/15 06:56:19;;;;;;;21.45;14.27;;;;;;;-145.63;44.27;38879.53;5061126;28;20021;-65
2023/09/15 06:58:46;;;;;;;20.40;14.27;;;;;;;-145.63;42.33;38912.78;5078406;28;20078;-66
2023/09/15 07:01:11;;;;;;;18.38;11.77;;;;;;;-145.63;41.94;38496.28;5085729;28;20321;-66
2023/09/15 07:03:37;;;;;;;21.65;11.82;;;;;;;-145.63;41.25;38910.81;5068104;28;20045;-65
2023/09/15 07:06:03;;;;;;;14.65;11.15;;;;;;;-145.63;41.46;38891.28;5077493;28;20063;-66
2023/09/15 07:08:29;;;;;;;20.40;11.82;;;;;;;-145.63;41.00;38879.53;5078314;28;20025;-67
2023/09/15 07:10:54;;;;;;;15.43;10.43;;;;;;;-145.63;39.67;38873.66;5074035;28;20032;-66
2023/09/15 07:13:20;;;;;;;13.38;9.57;;;;;;;-145.63;40.27;38816.97;5071845;28;20043;-67
2023/09/15 07:15:47;;;;;;;15.13;8.55;;;;;;;-145.63;38.41;38813.03;5066403;28;20031;-66
2023/09/15 07:18:13;;;;;;;15.73;8.55;;;;;;;-145.63;38.94;38809.13;5061766;28;20396;-67
2023/09/15 07:20:39;;;;;;;12.05;8.38;;;;;;;-145.63;39.43;38816.97;5077447;28;20036;-65
2023/09/15 07:23:05;;;;;;;13.57;7.47;;;;;;;-145.63;36.89;38830.66;5085009;28;20070;-67
2023/09/15 07:25:30;;;;;;;9.40;7.13;;;;;;;-145.63;38.03;38865.84;5065244;28;20025;-65
2023/09/15 07:27:56;;;;;;;9.95;7.32;;;;;;;-145.63;38.09;38773.94;5082639;28;20025;-66
2023/09/15 07:30:22;;;;;;;11.63;7.07;;;;;;;-145.63;37.76;38617.50;5078648;28;20024;-66
2023/09/15 07:32:48;;;;;;;11.50;6.50;;;;;;;-145.63;37.88;38787.63;5081167;28;20028;-66
2023/09/15 07:35:14;;;;;;;9.70;5.95;;;;;;;-145.63;37.95;38758.28;5083470;28;20028;-65
2023/09/15 07:37:41;;;;;;;10.35;5.60;;;;;;;-145.63;36.06;38813.03;5084682;28;20581;-66
2023/09/15 07:40:07;;;;;;;11.40;5.55;;;;;;;-145.63;36.32;38785.66;5084091;28;20037;-66
2023/09/15 07:42:34;;;;;;;9.18;6.00;;;;;;;-145.63;35.46;38813.03;5083602;28;20020;-67
2023/09/15 07:45:00;;;;;;;8.27;5.57;;;;;;;-145.63;36.25;38789.59;5081377;28;20060;-67
2023/09/15 07:47:26;;;;;;;7.50;4.70;;;;;;;-145.63;36.02;38754.38;5081801;28;20087;-66
2023/09/15 07:49:52;;;;;;;7.93;4.80;;;;;;;-145.63;36.07;38752.44;5082194;28;20032;-66
2023/09/15 07:52:18;;;;;;;8.73;5.75;;;;;;;-145.63;35.10;38764.16;5082568;28;20047;-66
2023/09/15 07:54:45;;;;;;;6.90;5.20;;;;;;;-145.63;35.76;38715.28;5082464;28;20098;-67
2023/09/15 07:57:10;;;;;;;8.43;5.53;;;;;;;-145.63;35.47;38703.53;5080897;28;20035;-67
2023/09/15 07:59:36;;;;;;;11.20;5.82;;;;;;;-145.63;35.26;38713.31;5065578;28;20024;-66
2023/09/15 08:02:04;;;;;;;7.95;6.05;;;;;;;-145.63;33.71;38723.09;5081894;28;20033;-66
2023/09/15 08:04:30;;;;;;;7.55;6.00;;;;;;;-145.63;33.38;38707.44;5083200;28;20052;-67
2023/09/15 08:06:56;;;;;;;8.15;5.60;;;;;;;-145.63;33.85;38754.38;5081595;28;20032;-67
2023/09/15 08:09:22;;;;;;;9.88;5.65;;;;;;;-145.63;33.80;38719.19;5081467;28;20021;-65
2023/09/15 08:11:47;;;;;;;9.35;5.28;;;;;;;-145.63;34.68;38742.66;5073760;28;20184;-65
2023/09/15 08:14:14;;;;;;;8.30;4.88;;;;;;;-145.63;34.94;38760.25;5068350;28;20028;-66
2023/09/15 08:16:39;;;;;;;10.68;5.40;;;;;;;-145.63;35.04;38742.66;5083209;28;20024;-68
2023/09/15 08:19:05;;;;;;;9.38;5.95;;;;;;;-145.63;34.98;38723.09;5077819;28;20074;-65
2023/09/15 08:21:31;;;;;;;6.60;4.97;;;;;;;-145.63;35.39;38699.63;5080642;28;20061;-67
2023/09/15 08:23:57;;;;;;;6.47;4.80;;;;;;;-145.63;34.91;38701.59;5077082;28;20024;-66
2023/09/15 08:26:24;;;;;;;7.22;4.63;;;;;;;-145.63;34.40;38705.50;5082140;28;20538;-66
2023/09/15 08:28:50;;;;;;;5.72;4.63;;;;;;;-145.63;34.28;38687.91;5081220;28;20059;-66
2023/09/15 08:31:15;;;;;;;7.35;4.80;;;;;;;-145.63;34.04;38642.91;5071482;28;20304;-65
2023/09/15 08:33:41;;;;;;;7.53;4.47;;;;;;;-145.63;33.83;38650.75;5077819;28;20074;-68
2023/09/15 08:36:07;;;;;;;9.60;4.28;;;;;;;-145.63;32.51;38631.19;5083893;28;20024;-66
2023/09/15 08:38:33;;;;;;;6.97;4.50;;;;;;;-145.63;32.40;38586.22;5083367;28;20020;-66
2023/09/15 08:41:07;;;;;;;9.93;4.22;;;;;;;-145.63;30.78;38601.84;5080763;28;20345;-67
2023/09/15 08:43:34;;;;;;;7.07;4.18;;;;;;;-145.63;31.79;38508.00;5063378;28;20092;-67
2023/09/15 08:46:03;;;;;;;6.90;4.47;;;;;;;-145.63;32.52;38492.34;5069776;28;20028;-67
2023/09/15 08:48:36;;;;;;;7.93;4.30;;;;;;;-145.63;30.09;38365.25;5083133;28;20028;-66
2023/09/15 08:51:03;;;;;;;9.70;4.38;;;;;;;-145.63;29.70;38306.59;5053938;28;20257;-67
2023/09/15 08:53:30;;;;;;;5.13;4.35;;;;;;;-145.63;29.36;38396.53;5069846;28;20086;-65
2023/09/15 08:55:57;;;;;;;5.10;4.60;;;;;;;-145.63;28.20;38437.59;5081259;28;20040;-66
2023/09/15 08:58:25;;;;;;;5.18;3.92;;;;;;;-145.63;28.50;38433.69;5074945;28;20039;-66
2023/09/15 09:00:53;;;;;;;5.72;4.25;;;;;;;-145.63;29.48;38445.44;5071734;28;20043;-66
2023/09/15 09:03:23;;;;;;;7.05;4.00;;;;;;;-145.63;29.48;38394.59;5059104;28;20072;-67
2023/09/15 09:05:50;;;;;;;8.07;4.00;;;;;;;-145.63;30.41;38392.63;5073593;28;20043;-67
2023/09/15 09:08:20;;;;;;;4.18;3.78;;;;;;;-145.63;29.61;38441.53;5076201;28;20035;-66
2023/09/15 09:10:48;;;;;;;7.72;3.70;;;;;;;-145.63;28.16;38429.78;5078263;28;20058;-66
2023/09/15 09:13:14;;;;;;;5.30;3.45;;;;;;;-145.63;28.62;38421.97;5062967;28;20021;-67
2023/09/15 09:15:42;;;;;;;4.70;3.40;;;;;;;-145.63;28.09;38445.44;5080554;28;20024;-66
2023/09/15 09:18:18;;;;;;;4.63;3.80;;;;;;;-145.63;27.62;38437.59;5076516;28;20099;-66
2023/09/15 09:20:49;;;;;;;4.97;3.75;;;;;;;-145.63;28.50;38418.06;5080891;28;20013;-67
2023/09/15 09:23:17;;;;;;;6.18;3.75;;;;;;;-145.63;28.40;38377.00;5082154;28;20020;-67
2023/09/15 09:25:43;;;;;;;4.95;4.20;;;;;;;-145.63;28.46;38333.97;5082439;28;20024;-68
2023/09/15 09:28:09;;;;;;;5.15;3.92;;;;;;;-145.63;27.08;38386.78;5082904;28;20354;-67
2023/09/15 09:30:34;;;;;;;6.38;4.13;;;;;;;-145.63;27.06;38431.75;5082602;28;20048;-67
2023/09/15 09:33:00;;;;;;;6.50;4.28;;;;;;;-145.63;27.87;38163.88;5070214;28;20036;-68
2023/09/15 09:35:27;;;;;;;5.50;3.58;;;;;;;-145.63;28.43;38441.53;5076799;28;20037;-66
2023/09/15 09:37:54;;;;;;;5.95;3.85;;;;;;;-145.63;27.72;38613.59;5075941;28;20092;-66
2023/09/15 09:40:21;;;;;;;6.57;4.53;;;;;;;-145.63;27.57;38433.69;5073424;28;20025;-67
2023/09/15 09:42:48;;;;;;;16.45;9.52;;;;;;;-145.63;28.28;38437.59;5075207;28;20032;-66
2023/09/15 09:45:14;;;;;;;5.07;3.72;;;;;;;-145.63;28.15;38425.88;5086884;28;20028;-66
2023/09/15 09:47:40;;;;;;;5.88;4.20;;;;;;;-145.63;28.18;38398.50;5080353;28;20099;-67
2023/09/15 09:50:10;;;;;;;6.03;3.97;;;;;;;-145.63;28.21;38420.00;5079212;28;20100;-67
2023/09/15 09:52:40;;;;;;;10.15;5.82;;;;;;;-145.63;28.18;38437.59;5076584;28;20024;-68
2023/09/15 09:55:08;;;;;;;7.38;3.92;;;;;;;-145.63;28.13;38457.16;5081329;28;20063;-67
2023/09/15 09:57:36;;;;;;;6.20;4.45;;;;;;;-145.63;27.86;38492.34;5068888;28;20071;-66
2023/09/15 10:00:03;;;;;;;6.07;4.03;;;;;;;-145.63;27.47;38474.75;5068584;28;20041;-67
2023/09/15 10:02:30;;;;;;;7.95;3.53;;;;;;;-145.63;27.55;38492.34;5083178;28;20048;-67
2023/09/15 10:04:55;;;;;;;4.50;3.83;;;;;;;-145.63;28.44;38468.91;5082681;28;20044;-67
2023/09/15 10:07:21;;;;;;;4.65;3.40;;;;;;;-145.63;28.92;38488.44;5077670;28;20036;-67
2023/09/15 10:09:47;;;;;;;5.93;4.13;;;;;;;-145.63;28.60;38506.03;5077290;28;20277;-65
2023/09/15 10:12:14;;;;;;;8.13;4.10;;;;;;;-145.63;28.69;38402.41;5070605;28;20033;-65
2023/09/15 10:14:40;;;;;;;5.43;3.90;;;;;;;-145.63;29.18;38527.56;5080898;28;20028;-66
2023/09/15 10:17:09;;;;;;;8.48;5.10;;;;;;;-145.63;29.91;38502.13;5042136;28;20020;-65
2023/09/15 10:19:35;;;;;;;5.13;4.03;;;;;;;-145.63;28.70;38502.13;5072021;28;20035;-65
2023/09/15 10:22:01;;;;;;;8.25;4.00;;;;;;;-145.63;28.70;38521.69;5075960;28;20081;-66
2023/09/15 10:24:27;;;;;;;4.47;3.90;;;;;;;-145.63;28.71;38590.13;5071990;28;20209;-68
2023/09/15 10:26:53;;;;;;;8.13;4.85;;;;;;;-145.63;29.69;38539.28;5080727;28;20025;-66
2023/09/15 10:29:19;;;;;;;8.35;4.30;;;;;;;-145.63;30.46;37538.25;5080054;28;20032;-65
2023/09/15 10:31:45;;;;;;;7.95;4.93;;;;;;;-145.63;29.22;38560.78;5073953;28;20359;-67
2023/09/15 10:34:11;;;;;;;5.43;4.20;;;;;;;-145.63;29.24;38551.03;5069630;28;20040;-66
2023/09/15 10:36:39;;;;;;;5.95;4.32;;;;;;;-145.63;28.90;38517.78;5071025;28;20025;-66
2023/09/15 10:39:17;;;;;;;7.10;4.35;;;;;;;-145.63;28.46;38554.94;5070462;28;20432;-66
2023/09/15 10:41:43;;;;;;;8.13;4.50;;;;;;;-145.63;29.04;38551.03;5077097;28;20036;-66
2023/09/15 10:44:10;;;;;;;7.75;3.97;;;;;;;-145.63;28.93;38539.28;5080655;28;20082;-66
2023/09/15 10:46:41;;;;;;;5.70;4.05;;;;;;;-145.63;28.67;38508.00;5074586;28;20025;-66
2023/09/15 10:49:19;;;;;;;5.50;3.45;;;;;;;-145.63;30.05;38533.41;5070905;28;20283;-67
2023/09/15 10:52:01;;;;;;;3.72;3.42;;;;;;;-145.63;28.17;38504.09;5079297;28;20044;-67
2023/09/15 10:54:32;;;;;;;5.78;3.90;;;;;;;-145.63;28.22;38562.75;5085388;28;20077;-67
2023/09/15 10:56:59;;;;;;;8.32;4.85;;;;;;;-145.63;29.03;38541.25;5064359;28;20193;-67
2023/09/15 10:59:26;;;;;;;6.30;4.30;;;;;;;-145.63;29.30;38519.72;5080883;28;20028;-66
2023/09/15 11:01:52;;;;;;;5.43;3.65;;;;;;;-145.63;29.31;38509.97;5074797;28;20075;-67
2023/09/15 11:04:20;;;;;;;6.82;3.83;;;;;;;-145.63;27.66;38549.06;5080643;28;20051;-66
2023/09/15 11:06:53;;;;;;;5.85;3.50;;;;;;;-145.63;28.54;38551.03;5073340;28;20024;-66